Time,TemperatureF,DewpointF,PressureIn,WindDirection,WindDirectionDegrees,WindSpeedMPH,WindSpeedGustMPH,Humidity,HourlyPrecipIn,Conditions,Clouds,dailyrainin,SoftwareType,DateUTC
2013-07-08 00:00:00,83.1,77.8,29.95,East,90,9.0,18.0,84,0.00,CLR,,0.00,WeatherDisplay:10.37,2013-07-08 06:00:00,
2013-07-08 00:15:00,83.0,77.7,29.95,ENE,69,10.0,16.0,84,0.00,CLR,,0.00,WeatherDisplay:10.37,2013-07-08 06:15:00,
2013-07-08 00:30:00,83.1,78.1,29.94,East,81,9.0,16.0,85,0.00,CLR,,0.00,WeatherDisplay:10.37,2013-07-08 06:30:00,
2013-07-08 00:45:00,83.0,77.3,29.94,East,80,10.0,16.0,83,0.00,CLR,,0.00,WeatherDisplay:10.37,2013-07-08 06:45:00,
2013-07-08 01:00:00,83.1,78.1,29.93,East,97,6.0,18.0,85,0.00,CLR,,0.00,WeatherDisplay:10.37,2013-07-08 07:00:00,
2013-07-08 01:15:00,82.8,77.8,29.93,East,88,10.0,16.0,85,0.00,CLR,,0.00,WeatherDisplay:10.37,2013-07-08 07:15:00,
2013-07-08 01:30:00,82.7,77.7,29.93,East,93,8.0,15.0,85,0.00,CLR,,0.00,WeatherDisplay:10.37,2013-07-08 07:30:00,
2013-07-08 01:45:00,82.7,78.1,29.93,East,97,9.0,16.0,86,0.00,CLR,,0.00,WeatherDisplay:10.37,2013-07-08 07:45:00,
2013-07-08 02:00:00,82.7,77.7,29.93,East,96,8.0,16.0,85,0.00,CLR,,0.00,WeatherDisplay:10.37,2013-07-08 08:00:00,
2013-07-08 02:15:00,82.8,77.8,29.92,East,85,12.0,18.0,85,0.00,CLR,,0.00,WeatherDisplay:10.37,2013-07-08 08:15:00,
2013-07-08 02:30:00,82.7,77.8,29.92,East,96,9.0,15.0,85,0.00,CLR,,0.00,WeatherDisplay:10.37,2013-07-08 08:30:00,
2013-07-08 02:45:00,82.7,78.1,29.92,East,100,3.0,14.0,86,0.00,CLR,,0.00,WeatherDisplay:10.37,2013-07-08 08:45:00,
2013-07-08 03:00:00,82.7,77.7,29.92,East,101,5.0,14.0,85,0.00,CLR,,0.00,WeatherDisplay:10.37,2013-07-08 09:00:00,
2013-07-08 03:15:00,82.7,77.0,29.92,ESE,102,6.0,14.0,83,0.00,CLR,,0.00,WeatherDisplay:10.37,2013-07-08 09:15:00,
2013-07-08 03:30:00,82.8,77.8,29.92,East,82,6.0,15.0,85,0.00,CLR,,0.00,WeatherDisplay:10.37,2013-07-08 09:30:00,
2013-07-08 03:45:00,82.6,76.9,29.92,ESE,105,7.0,10.0,83,0.00,CLR,,0.00,WeatherDisplay:10.37,2013-07-08 09:45:00,
2013-07-08 04:00:00,82.7,77.0,29.93,East,100,6.0,13.0,83,0.00,CLR,,0.00,WeatherDisplay:10.37,2013-07-08 10:00:00,
2013-07-08 04:15:00,82.6,76.9,29.93,ESE,102,5.0,10.0,83,0.00,CLR,,0.00,WeatherDisplay:10.37,2013-07-08 10:15:00,
2013-07-08 04:30:00,82.6,77.3,29.93,East,100,5.0,10.0,84,0.00,CLR,,0.00,WeatherDisplay:10.37,2013-07-08 10:30:00,
2013-07-08 04:45:00,82.6,77.3,29.93,East,94,7.0,12.0,84,0.00,CLR,,0.00,WeatherDisplay:10.37,2013-07-08 10:45:00,
2013-07-08 05:00:00,82.7,77.4,29.94,ESE,108,6.0,12.0,84,0.00,CLR,,0.00,WeatherDisplay:10.37,2013-07-08 11:00:00,
2013-07-08 05:15:00,82.4,76.7,29.94,East,100,7.0,12.0,83,0.00,CLR,,0.00,WeatherDisplay:10.37,2013-07-08 11:15:00,
2013-07-08 05:30:00,82.5,76.8,29.94,East,90,5.0,12.0,83,0.00,CLR,,0.00,WeatherDisplay:10.37,2013-07-08 11:30:00,
2013-07-08 05:45:00,82.6,77.3,29.95,East,93,5.0,12.0,84,0.00,CLR,,0.00,WeatherDisplay:10.37,2013-07-08 11:45:00,
2013-07-08 06:00:00,82.7,77.1,29.96,East,99,3.0,13.0,83,0.00,CLR,,0.00,WeatherDisplay:10.37,2013-07-08 12:00:00,
2013-07-08 06:15:00,82.9,76.8,29.96,ESE,109,5.0,9.0,82,0.00,CLR,,0.00,WeatherDisplay:10.37,2013-07-08 12:15:00,
2013-07-08 06:30:00,82.9,76.8,29.97,ESE,111,7.0,9.0,82,0.00,CLR,,0.00,WeatherDisplay:10.37,2013-07-08 12:30:00,
2013-07-08 06:45:00,83.3,76.9,29.97,ESE,105,7.0,10.0,81,0.00,CLR,,0.00,WeatherDisplay:10.37,2013-07-08 12:45:00,
2013-07-08 07:00:00,83.9,77.4,29.97,ESE,111,7.0,9.0,81,0.00,CLR,,0.00,WeatherDisplay:10.37,2013-07-08 13:00:00,
2013-07-08 07:15:00,84.4,77.2,29.98,ESE,106,3.0,12.0,79,0.00,CLR,,0.00,WeatherDisplay:10.37,2013-07-08 13:15:00,
2013-07-08 07:30:00,84.8,76.8,29.98,ESE,107,8.0,12.0,77,0.00,CLR,,0.00,WeatherDisplay:10.37,2013-07-08 13:30:00,
2013-07-08 07:45:00,85.1,77.1,29.99,ESE,110,2.0,9.0,77,0.00,CLR,,0.00,WeatherDisplay:10.37,2013-07-08 13:45:00,
2013-07-08 08:00:00,85.3,77.3,29.99,ESE,106,3.0,9.0,77,0.00,CLR,,0.00,WeatherDisplay:10.37,2013-07-08 14:00:00,
2013-07-08 08:15:00,85.5,76.7,30.00,ESE,113,7.0,9.0,75,0.00,CLR,,0.00,WeatherDisplay:10.37,2013-07-08 14:15:00,
2013-07-08 08:30:00,85.7,76.9,30.00,ESE,105,6.0,10.0,75,0.00,CLR,,0.00,WeatherDisplay:10.37,2013-07-08 14:30:00,
2013-07-08 08:45:00,86.3,77.1,30.00,East,98,5.0,8.0,74,0.00,CLR,,0.00,WeatherDisplay:10.37,2013-07-08 14:45:00,
2013-07-08 09:00:00,86.6,77.4,30.01,East,93,3.0,12.0,74,0.00,CLR,,0.00,WeatherDisplay:10.37,2013-07-08 15:00:00,
2013-07-08 09:15:00,87.0,77.3,30.01,ESE,110,3.0,12.0,73,0.00,CLR,,0.00,WeatherDisplay:10.37,2013-07-08 15:15:00,
2013-07-08 09:30:00,86.8,77.1,30.01,East,98,6.0,10.0,73,0.00,CLR,,0.00,WeatherDisplay:10.37,2013-07-08 15:30:00,
2013-07-08 09:45:00,86.5,77.6,30.01,East,91,3.0,10.0,75,0.00,CLR,,0.00,WeatherDisplay:10.37,2013-07-08 15:45:00,
2013-07-08 10:00:00,86.0,77.1,30.01,East,99,5.0,9.0,75,0.00,CLR,,0.00,WeatherDisplay:10.37,2013-07-08 16:00:00,
2013-07-08 10:15:00,86.1,77.6,30.01,East,87,8.0,10.0,76,0.00,CLR,,0.00,WeatherDisplay:10.37,2013-07-08 16:15:00,
2013-07-08 10:30:00,86.6,78.1,30.01,East,84,3.0,10.0,76,0.00,CLR,,0.00,WeatherDisplay:10.37,2013-07-08 16:30:00,
2013-07-08 10:45:00,86.8,77.1,30.02,East,99,5.0,8.0,73,0.00,CLR,,0.00,WeatherDisplay:10.37,2013-07-08 16:45:00,
2013-07-08 11:00:00,87.2,77.9,30.01,ESE,106,5.0,8.0,74,0.00,CLR,,0.00,WeatherDisplay:10.37,2013-07-08 17:00:00,
2013-07-08 11:15:00,87.4,78.5,30.01,East,94,3.0,9.0,75,0.00,CLR,,0.00,WeatherDisplay:10.37,2013-07-08 17:15:00,
2013-07-08 11:30:00,87.5,77.4,30.01,East,88,6.0,9.0,72,0.00,CLR,,0.00,WeatherDisplay:10.37,2013-07-08 17:30:00,
2013-07-08 11:45:00,88.4,78.2,30.01,East,98,6.0,9.0,72,0.00,CLR,,0.00,WeatherDisplay:10.37,2013-07-08 17:45:00,
2013-07-08 12:00:00,88.3,78.1,30.01,East,88,2.0,8.0,72,0.00,CLR,,0.00,WeatherDisplay:10.37,2013-07-08 18:00:00,
2013-07-08 12:15:00,87.9,77.7,30.00,East,101,3.0,8.0,72,0.00,CLR,,0.00,WeatherDisplay:10.37,2013-07-08 18:15:00,
2013-07-08 12:30:00,87.0,77.7,30.00,ESE,118,6.0,9.0,74,0.00,CLR,,0.00,WeatherDisplay:10.37,2013-07-08 18:30:00,
2013-07-08 12:45:00,86.5,77.7,30.00,ESE,116,5.0,9.0,75,0.00,CLR,,0.00,WeatherDisplay:10.37,2013-07-08 18:45:00,
2013-07-08 13:00:00,86.8,78.0,29.99,East,101,5.0,9.0,75,0.00,CLR,,0.00,WeatherDisplay:10.37,2013-07-08 19:00:00,
2013-07-08 13:15:00,87.1,78.6,29.99,ESE,105,5.0,9.0,76,0.00,CLR,,0.00,WeatherDisplay:10.37,2013-07-08 19:15:00,
2013-07-08 13:30:00,87.6,77.9,29.99,East,98,3.0,10.0,73,0.00,CLR,,0.00,WeatherDisplay:10.37,2013-07-08 19:30:00,
2013-07-08 13:45:00,87.7,77.5,29.99,East,97,6.0,9.0,72,0.00,CLR,,0.00,WeatherDisplay:10.37,2013-07-08 19:45:00,
2013-07-08 14:00:00,87.4,78.1,29.98,East,98,5.0,10.0,74,0.00,CLR,,0.00,WeatherDisplay:10.37,2013-07-08 20:00:00,
2013-07-08 14:15:00,86.9,77.6,29.98,East,101,6.0,10.0,74,0.00,CLR,,0.00,WeatherDisplay:10.37,2013-07-08 20:15:00,
2013-07-08 14:30:00,87.0,78.1,29.97,East,99,6.0,12.0,75,0.00,CLR,,0.00,WeatherDisplay:10.37,2013-07-08 20:30:00,
2013-07-08 14:45:00,87.1,78.2,29.96,East,96,5.0,9.0,75,0.00,CLR,,0.00,WeatherDisplay:10.37,2013-07-08 20:45:00,
2013-07-08 15:15:00,86.6,78.1,29.96,East,96,5.0,10.0,76,0.00,CLR,,0.00,WeatherDisplay:10.37,2013-07-08 21:15:00,
2013-07-08 16:00:00,86.0,78.3,29.96,East,93,3.0,13.0,78,0.00,CLR,,0.00,WeatherDisplay:10.37,2013-07-08 22:00:00,
2013-07-08 16:15:00,85.7,78.0,29.96,East,89,7.0,12.0,78,0.00,CLR,,0.00,WeatherDisplay:10.37,2013-07-08 22:15:00,
2013-07-08 16:26:00,85.1,78.3,29.96,East,89,8.0,13.0,80,0.00,CLR,,0.00,WeatherDisplay:10.37,2013-07-08 22:26:00,
2013-07-08 16:45:00,85.0,78.9,29.96,East,84,7.0,12.0,82,0.00,CLR,,0.00,WeatherDisplay:10.37,2013-07-08 22:45:00,
2013-07-08 17:00:00,84.7,78.6,29.96,East,92,6.0,12.0,82,0.00,CLR,,0.00,WeatherDisplay:10.37,2013-07-08 23:00:00,
2013-07-08 17:15:00,84.7,78.9,29.97,East,95,3.0,12.0,83,0.00,CLR,,0.00,WeatherDisplay:10.37,2013-07-08 23:15:00,
2013-07-08 17:30:00,84.4,78.6,29.97,ESE,107,3.0,12.0,83,0.00,CLR,,0.00,WeatherDisplay:10.37,2013-07-08 23:30:00,
2013-07-08 17:45:00,84.3,78.2,29.97,East,90,5.0,13.0,82,0.00,CLR,,0.00,WeatherDisplay:10.37,2013-07-08 23:45:00,
2013-07-08 18:00:00,84.0,77.9,29.97,East,95,5.0,12.0,82,0.00,CLR,,0.00,WeatherDisplay:10.37,2013-07-09 00:00:00,
2013-07-08 18:15:00,83.8,77.7,29.97,East,94,2.0,10.0,82,0.00,CLR,,0.00,WeatherDisplay:10.37,2013-07-09 00:15:00,
2013-07-08 18:30:00,83.9,77.8,29.97,ESE,108,6.0,9.0,82,0.00,CLR,,0.00,WeatherDisplay:10.37,2013-07-09 00:30:00,
2013-07-08 18:45:00,83.5,77.8,29.98,East,98,10.0,14.0,83,0.00,CLR,,0.00,WeatherDisplay:10.37,2013-07-09 00:45:00,
2013-07-08 19:00:00,83.6,77.1,29.98,ENE,77,8.0,13.0,81,0.00,CLR,,0.00,WeatherDisplay:10.37,2013-07-09 01:00:00,
2013-07-08 19:15:00,83.5,77.8,29.99,ENE,78,6.0,11.0,83,0.00,CLR,,0.00,WeatherDisplay:10.37,2013-07-09 01:15:00,
2013-07-08 19:30:00,83.2,77.9,30.00,East,79,3.0,12.0,84,0.00,CLR,,0.00,WeatherDisplay:10.37,2013-07-09 01:30:00,
2013-07-08 19:45:00,83.2,78.2,30.00,ENE,78,6.0,9.0,85,0.00,CLR,,0.00,WeatherDisplay:10.37,2013-07-09 01:45:00,
2013-07-08 20:00:00,83.1,78.2,30.01,East,85,3.0,10.0,85,0.00,CLR,,0.00,WeatherDisplay:10.37,2013-07-09 02:00:00,
2013-07-08 20:30:00,83.2,76.8,30.01,East,85,7.0,9.0,81,0.00,CLR,,0.00,WeatherDisplay:10.37,2013-07-09 02:30:00,
2013-07-08 20:45:00,83.2,77.1,30.02,ENE,71,5.0,10.0,82,0.00,CLR,,0.00,WeatherDisplay:10.37,2013-07-09 02:45:00,
2013-07-08 21:00:00,83.1,77.4,30.02,East,85,3.0,9.0,83,0.00,CLR,,0.00,WeatherDisplay:10.37,2013-07-09 03:00:00,
2013-07-08 21:15:00,83.1,77.4,30.03,East,86,3.0,9.0,83,0.00,CLR,,0.00,WeatherDisplay:10.37,2013-07-09 03:15:00,
2013-07-08 21:45:00,83.2,76.7,30.03,East,88,5.0,10.0,81,0.00,CLR,,0.00,WeatherDisplay:10.37,2013-07-09 03:45:00,
2013-07-08 22:00:00,83.2,77.1,30.03,East,92,1.0,9.0,82,0.00,CLR,,0.00,WeatherDisplay:10.37,2013-07-09 04:00:00,
2013-07-08 22:15:00,83.2,77.1,30.03,East,88,7.0,10.0,82,0.00,CLR,,0.00,WeatherDisplay:10.37,2013-07-09 04:15:00,
2013-07-08 22:30:00,83.2,77.5,30.03,ESE,103,1.0,8.0,83,0.00,CLR,,0.00,WeatherDisplay:10.37,2013-07-09 04:30:00,
2013-07-08 22:45:00,83.2,77.9,30.04,ESE,109,2.0,10.0,84,0.00,CLR,,0.00,WeatherDisplay:10.37,2013-07-09 04:45:00,
2013-07-08 23:00:00,83.0,77.7,30.03,East,101,3.0,9.0,84,0.00,CLR,,0.00,WeatherDisplay:10.37,2013-07-09 05:00:00,
2013-07-08 23:15:00,83.0,78.0,30.03,ESE,110,3.0,10.0,85,0.00,CLR,,0.00,WeatherDisplay:10.37,2013-07-09 05:15:00,
2013-07-08 23:30:00,83.0,78.0,30.02,East,95,3.0,10.0,85,0.00,CLR,,0.00,WeatherDisplay:10.37,2013-07-09 05:30:00,
2013-07-08 23:45:00,82.9,77.6,30.02,East,96,6.0,10.0,84,0.00,CLR,,0.00,WeatherDisplay:10.37,2013-07-09 05:45:00,